sensor_id;sensor_type;location;lat;lon;timestamp;temperature;humidity
44747;DHT22;30472;49.490;10.972;2023-03-31T00:01:59;8.60;99.90
44747;DHT22;30472;49.490;10.972;2023-03-31T00:04:26;8.60;99.90
44747;DHT22;30472;49.490;10.972;2023-03-31T00:06:52;8.60;99.90
44747;DHT22;30472;49.490;10.972;2023-03-31T00:09:19;8.70;99.90
44747;DHT22;30472;49.490;10.972;2023-03-31T00:11:47;8.70;99.90
44747;DHT22;30472;49.490;10.972;2023-03-31T00:14:14;8.70;99.90
44747;DHT22;30472;49.490;10.972;2023-03-31T00:16:42;8.80;99.90
44747;DHT22;30472;49.490;10.972;2023-03-31T00:19:09;8.90;99.90
44747;DHT22;30472;49.490;10.972;2023-03-31T00:21:43;8.80;99.90
44747;DHT22;30472;49.490;10.972;2023-03-31T00:24:10;8.80;99.90
44747;DHT22;30472;49.490;10.972;2023-03-31T00:26:36;8.70;99.90
44747;DHT22;30472;49.490;10.972;2023-03-31T00:29:03;8.70;99.90
44747;DHT22;30472;49.490;10.972;2023-03-31T00:31:29;8.50;99.90
44747;DHT22;30472;49.490;10.972;2023-03-31T00:33:55;8.50;99.90
44747;DHT22;30472;49.490;10.972;2023-03-31T00:36:22;8.50;99.90
44747;DHT22;30472;49.490;10.972;2023-03-31T00:38:56;8.40;99.90
44747;DHT22;30472;49.490;10.972;2023-03-31T00:41:23;8.40;99.90
44747;DHT22;30472;49.490;10.972;2023-03-31T00:44:04;8.30;99.90
44747;DHT22;30472;49.490;10.972;2023-03-31T00:46:33;8.30;99.90
44747;DHT22;30472;49.490;10.972;2023-03-31T00:49:01;8.30;99.90
44747;DHT22;30472;49.490;10.972;2023-03-31T00:51:29;8.30;99.90
44747;DHT22;30472;49.490;10.972;2023-03-31T00:54:00;8.30;99.90
44747;DHT22;30472;49.490;10.972;2023-03-31T00:56:32;8.20;99.90
44747;DHT22;30472;49.490;10.972;2023-03-31T00:59:02;8.20;99.90
44747;DHT22;30472;49.490;10.972;2023-03-31T01:01:28;8.20;99.90
44747;DHT22;30472;49.490;10.972;2023-03-31T01:03:55;8.20;99.90
44747;DHT22;30472;49.490;10.972;2023-03-31T01:06:21;8.30;99.90
44747;DHT22;30472;49.490;10.972;2023-03-31T01:08:49;8.30;99.90
44747;DHT22;30472;49.490;10.972;2023-03-31T01:11:18;8.30;99.90
44747;DHT22;30472;49.490;10.972;2023-03-31T01:13:44;8.20;99.90
44747;DHT22;30472;49.490;10.972;2023-03-31T01:16:14;8.30;99.90
44747;DHT22;30472;49.490;10.972;2023-03-31T01:18:40;8.30;99.90
44747;DHT22;30472;49.490;10.972;2023-03-31T01:24:18;8.30;99.90
44747;DHT22;30472;49.490;10.972;2023-03-31T01:27:27;8.30;99.90
44747;DHT22;30472;49.490;10.972;2023-03-31T01:35:57;8.40;99.90
44747;DHT22;30472;49.490;10.972;2023-03-31T01:41:28;8.40;99.90
44747;DHT22;30472;49.490;10.972;2023-03-31T01:44:07;8.40;99.90
44747;DHT22;30472;49.490;10.972;2023-03-31T01:46:50;8.40;99.90
44747;DHT22;30472;49.490;10.972;2023-03-31T01:49:38;8.40;99.90
44747;DHT22;30472;49.490;10.972;2023-03-31T01:52:25;8.40;99.90
44747;DHT22;30472;49.490;10.972;2023-03-31T01:55:05;8.40;99.90
44747;DHT22;30472;49.490;10.972;2023-03-31T01:57:48;8.40;99.90
44747;DHT22;30472;49.490;10.972;2023-03-31T02:00:27;8.40;99.90
44747;DHT22;30472;49.490;10.972;2023-03-31T02:03:34;8.50;99.90
44747;DHT22;30472;49.490;10.972;2023-03-31T02:06:08;8.50;99.90
44747;DHT22;30472;49.490;10.972;2023-03-31T02:08:39;8.50;99.90
44747;DHT22;30472;49.490;10.972;2023-03-31T02:11:06;8.60;99.90
44747;DHT22;30472;49.490;10.972;2023-03-31T02:13:33;8.60;99.90
44747;DHT22;30472;49.490;10.972;2023-03-31T02:16:03;8.60;99.90
44747;DHT22;30472;49.490;10.972;2023-03-31T02:18:32;8.70;99.90
44747;DHT22;30472;49.490;10.972;2023-03-31T02:21:05;8.70;99.90
44747;DHT22;30472;49.490;10.972;2023-03-31T02:23:31;8.60;99.90
44747;DHT22;30472;49.490;10.972;2023-03-31T02:26:10;8.60;99.90
44747;DHT22;30472;49.490;10.972;2023-03-31T02:28:37;8.60;99.90
44747;DHT22;30472;49.490;10.972;2023-03-31T02:34:02;8.60;99.90
44747;DHT22;30472;49.490;10.972;2023-03-31T02:36:29;8.60;99.90
44747;DHT22;30472;49.490;10.972;2023-03-31T02:38:58;8.60;99.90
44747;DHT22;30472;49.490;10.972;2023-03-31T02:41:26;8.60;99.90
44747;DHT22;30472;49.490;10.972;2023-03-31T02:43:52;8.60;99.90
44747;DHT22;30472;49.490;10.972;2023-03-31T02:46:17;8.70;99.90
44747;DHT22;30472;49.490;10.972;2023-03-31T02:48:49;8.70;99.90
44747;DHT22;30472;49.490;10.972;2023-03-31T02:54:24;8.70;99.90
44747;DHT22;30472;49.490;10.972;2023-03-31T03:00:17;8.70;99.90
44747;DHT22;30472;49.490;10.972;2023-03-31T03:03:27;8.70;99.90
44747;DHT22;30472;49.490;10.972;2023-03-31T03:06:15;8.70;99.90
44747;DHT22;30472;49.490;10.972;2023-03-31T03:14:47;8.80;99.90
44747;DHT22;30472;49.490;10.972;2023-03-31T03:17:52;8.90;99.90
44747;DHT22;30472;49.490;10.972;2023-03-31T03:20:12;8.90;99.90
44747;DHT22;30472;49.490;10.972;2023-03-31T03:22:39;8.90;99.90
44747;DHT22;30472;49.490;10.972;2023-03-31T03:25:06;8.80;99.90
44747;DHT22;30472;49.490;10.972;2023-03-31T03:27:34;8.80;99.90
44747;DHT22;30472;49.490;10.972;2023-03-31T03:30:00;8.90;99.90
44747;DHT22;30472;49.490;10.972;2023-03-31T03:32:29;8.90;99.90
44747;DHT22;30472;49.490;10.972;2023-03-31T03:34:55;8.80;99.90
44747;DHT22;30472;49.490;10.972;2023-03-31T03:37:21;8.80;99.90
44747;DHT22;30472;49.490;10.972;2023-03-31T03:39:46;8.70;99.90
44747;DHT22;30472;49.490;10.972;2023-03-31T03:42:12;8.70;99.90
44747;DHT22;30472;49.490;10.972;2023-03-31T03:44:38;8.70;99.90
44747;DHT22;30472;49.490;10.972;2023-03-31T03:47:03;8.80;99.90
44747;DHT22;30472;49.490;10.972;2023-03-31T03:49:29;8.90;99.90
44747;DHT22;30472;49.490;10.972;2023-03-31T03:51:54;8.90;99.90
44747;DHT22;30472;49.490;10.972;2023-03-31T03:54:20;8.90;99.90
44747;DHT22;30472;49.490;10.972;2023-03-31T03:56:46;8.90;99.90
44747;DHT22;30472;49.490;10.972;2023-03-31T03:59:11;8.90;99.90
44747;DHT22;30472;49.490;10.972;2023-03-31T04:01:37;8.90;99.90
44747;DHT22;30472;49.490;10.972;2023-03-31T04:04:03;9.00;99.90
44747;DHT22;30472;49.490;10.972;2023-03-31T04:06:29;9.00;99.90
44747;DHT22;30472;49.490;10.972;2023-03-31T04:08:54;9.00;99.90
44747;DHT22;30472;49.490;10.972;2023-03-31T04:11:20;9.10;99.90
44747;DHT22;30472;49.490;10.972;2023-03-31T04:13:46;9.00;99.90
44747;DHT22;30472;49.490;10.972;2023-03-31T04:16:12;9.10;99.90
44747;DHT22;30472;49.490;10.972;2023-03-31T04:18:38;9.00;99.90
44747;DHT22;30472;49.490;10.972;2023-03-31T04:21:11;9.00;99.90
44747;DHT22;30472;49.490;10.972;2023-03-31T04:23:40;9.00;99.90
44747;DHT22;30472;49.490;10.972;2023-03-31T04:26:12;9.10;99.90
44747;DHT22;30472;49.490;10.972;2023-03-31T04:28:38;9.10;99.90
44747;DHT22;30472;49.490;10.972;2023-03-31T04:31:08;9.00;99.90
44747;DHT22;30472;49.490;10.972;2023-03-31T04:33:34;9.00;99.90
44747;DHT22;30472;49.490;10.972;2023-03-31T04:36:04;9.00;99.90
44747;DHT22;30472;49.490;10.972;2023-03-31T04:38:32;9.00;99.90
44747;DHT22;30472;49.490;10.972;2023-03-31T04:40:58;9.00;99.90
44747;DHT22;30472;49.490;10.972;2023-03-31T04:43:23;9.00;99.90
44747;DHT22;30472;49.490;10.972;2023-03-31T04:45:49;8.90;99.90
44747;DHT22;30472;49.490;10.972;2023-03-31T04:48:15;8.90;99.90
44747;DHT22;30472;49.490;10.972;2023-03-31T04:50:41;8.90;99.90
44747;DHT22;30472;49.490;10.972;2023-03-31T04:53:07;8.90;99.90
44747;DHT22;30472;49.490;10.972;2023-03-31T04:55:33;8.90;99.90
44747;DHT22;30472;49.490;10.972;2023-03-31T04:57:59;9.00;99.90
44747;DHT22;30472;49.490;10.972;2023-03-31T05:00:25;8.90;99.90
44747;DHT22;30472;49.490;10.972;2023-03-31T05:02:51;8.90;99.90
44747;DHT22;30472;49.490;10.972;2023-03-31T05:05:16;8.90;99.90
44747;DHT22;30472;49.490;10.972;2023-03-31T05:07:42;8.90;99.90
44747;DHT22;30472;49.490;10.972;2023-03-31T05:10:08;8.90;99.90
44747;DHT22;30472;49.490;10.972;2023-03-31T05:12:35;8.80;99.90
44747;DHT22;30472;49.490;10.972;2023-03-31T05:15:01;8.80;99.90
44747;DHT22;30472;49.490;10.972;2023-03-31T05:17:29;8.80;99.90
44747;DHT22;30472;49.490;10.972;2023-03-31T05:19:55;8.80;99.90
44747;DHT22;30472;49.490;10.972;2023-03-31T05:22:21;8.80;99.90
44747;DHT22;30472;49.490;10.972;2023-03-31T05:24:46;8.70;99.90
44747;DHT22;30472;49.490;10.972;2023-03-31T05:27:12;8.80;99.90
44747;DHT22;30472;49.490;10.972;2023-03-31T05:29:38;8.80;99.90
44747;DHT22;30472;49.490;10.972;2023-03-31T05:32:04;8.80;99.90
44747;DHT22;30472;49.490;10.972;2023-03-31T05:34:30;8.80;99.90
44747;DHT22;30472;49.490;10.972;2023-03-31T05:36:55;8.70;99.90
44747;DHT22;30472;49.490;10.972;2023-03-31T05:39:22;8.80;99.90
44747;DHT22;30472;49.490;10.972;2023-03-31T05:41:47;8.80;99.90
44747;DHT22;30472;49.490;10.972;2023-03-31T05:44:13;8.80;99.90
44747;DHT22;30472;49.490;10.972;2023-03-31T05:46:38;8.80;99.90
44747;DHT22;30472;49.490;10.972;2023-03-31T05:49:05;8.90;99.90
44747;DHT22;30472;49.490;10.972;2023-03-31T05:51:31;8.80;99.90
44747;DHT22;30472;49.490;10.972;2023-03-31T05:53:57;8.80;99.90
44747;DHT22;30472;49.490;10.972;2023-03-31T05:56:22;8.90;99.90
44747;DHT22;30472;49.490;10.972;2023-03-31T05:58:48;8.90;99.90
44747;DHT22;30472;49.490;10.972;2023-03-31T06:01:16;8.90;99.90
44747;DHT22;30472;49.490;10.972;2023-03-31T06:03:45;9.00;99.90
44747;DHT22;30472;49.490;10.972;2023-03-31T06:06:11;8.90;99.90
44747;DHT22;30472;49.490;10.972;2023-03-31T06:08:42;9.00;99.90
44747;DHT22;30472;49.490;10.972;2023-03-31T06:11:13;9.00;99.90
44747;DHT22;30472;49.490;10.972;2023-03-31T06:13:39;9.00;99.90
44747;DHT22;30472;49.490;10.972;2023-03-31T06:16:06;9.00;99.90
44747;DHT22;30472;49.490;10.972;2023-03-31T06:18:33;9.00;99.90
44747;DHT22;30472;49.490;10.972;2023-03-31T06:20:59;9.00;99.90
44747;DHT22;30472;49.490;10.972;2023-03-31T06:23:25;9.00;99.90
44747;DHT22;30472;49.490;10.972;2023-03-31T06:25:51;9.10;99.90
44747;DHT22;30472;49.490;10.972;2023-03-31T06:28:20;9.00;99.90
44747;DHT22;30472;49.490;10.972;2023-03-31T06:30:46;9.10;99.90
44747;DHT22;30472;49.490;10.972;2023-03-31T06:33:12;9.00;99.90
44747;DHT22;30472;49.490;10.972;2023-03-31T06:35:38;9.00;99.90
44747;DHT22;30472;49.490;10.972;2023-03-31T06:38:05;9.00;99.90
44747;DHT22;30472;49.490;10.972;2023-03-31T06:40:30;9.00;99.90
44747;DHT22;30472;49.490;10.972;2023-03-31T06:42:56;9.00;99.90
44747;DHT22;30472;49.490;10.972;2023-03-31T06:45:21;9.00;99.90
44747;DHT22;30472;49.490;10.972;2023-03-31T06:47:47;9.00;99.90
44747;DHT22;30472;49.490;10.972;2023-03-31T06:50:13;9.00;99.90
44747;DHT22;30472;49.490;10.972;2023-03-31T06:52:39;9.00;99.90
44747;DHT22;30472;49.490;10.972;2023-03-31T06:55:07;9.00;99.90
44747;DHT22;30472;49.490;10.972;2023-03-31T06:57:33;9.00;99.90
44747;DHT22;30472;49.490;10.972;2023-03-31T06:59:59;9.00;99.90
44747;DHT22;30472;49.490;10.972;2023-03-31T07:02:25;9.00;99.90
44747;DHT22;30472;49.490;10.972;2023-03-31T07:04:50;9.00;99.90
44747;DHT22;30472;49.490;10.972;2023-03-31T07:07:16;8.90;99.90
44747;DHT22;30472;49.490;10.972;2023-03-31T07:09:42;8.90;99.90
44747;DHT22;30472;49.490;10.972;2023-03-31T07:12:07;8.90;99.90
44747;DHT22;30472;49.490;10.972;2023-03-31T07:14:34;8.90;99.90
44747;DHT22;30472;49.490;10.972;2023-03-31T07:17:00;9.00;99.90
44747;DHT22;30472;49.490;10.972;2023-03-31T07:19:26;8.90;99.90
44747;DHT22;30472;49.490;10.972;2023-03-31T07:21:51;8.90;99.90
44747;DHT22;30472;49.490;10.972;2023-03-31T07:24:17;8.90;99.90
44747;DHT22;30472;49.490;10.972;2023-03-31T07:26:43;8.90;99.90
44747;DHT22;30472;49.490;10.972;2023-03-31T07:29:08;8.90;99.90
44747;DHT22;30472;49.490;10.972;2023-03-31T07:31:34;9.00;99.90
44747;DHT22;30472;49.490;10.972;2023-03-31T07:34:04;9.00;99.90
44747;DHT22;30472;49.490;10.972;2023-03-31T07:36:30;9.00;99.90
44747;DHT22;30472;49.490;10.972;2023-03-31T07:38:56;9.00;99.90
44747;DHT22;30472;49.490;10.972;2023-03-31T07:41:22;9.00;99.90
44747;DHT22;30472;49.490;10.972;2023-03-31T07:43:49;9.10;99.90
44747;DHT22;30472;49.490;10.972;2023-03-31T07:46:23;9.10;99.90
44747;DHT22;30472;49.490;10.972;2023-03-31T07:48:49;9.10;99.90
44747;DHT22;30472;49.490;10.972;2023-03-31T07:51:18;9.10;99.90
44747;DHT22;30472;49.490;10.972;2023-03-31T07:53:44;9.10;99.90
44747;DHT22;30472;49.490;10.972;2023-03-31T07:56:11;9.10;99.90
44747;DHT22;30472;49.490;10.972;2023-03-31T07:58:36;9.10;99.90
44747;DHT22;30472;49.490;10.972;2023-03-31T08:01:03;9.00;99.90
44747;DHT22;30472;49.490;10.972;2023-03-31T08:03:28;9.00;99.90
44747;DHT22;30472;49.490;10.972;2023-03-31T08:05:54;9.00;99.90
44747;DHT22;30472;49.490;10.972;2023-03-31T08:08:20;9.00;99.90
44747;DHT22;30472;49.490;10.972;2023-03-31T08:10:46;9.00;99.90
44747;DHT22;30472;49.490;10.972;2023-03-31T08:13:12;9.00;99.90
44747;DHT22;30472;49.490;10.972;2023-03-31T08:15:38;9.00;99.90
44747;DHT22;30472;49.490;10.972;2023-03-31T08:18:04;9.00;99.90
44747;DHT22;30472;49.490;10.972;2023-03-31T08:20:30;9.00;99.90
44747;DHT22;30472;49.490;10.972;2023-03-31T08:22:55;9.00;99.90
44747;DHT22;30472;49.490;10.972;2023-03-31T08:25:21;9.00;99.90
44747;DHT22;30472;49.490;10.972;2023-03-31T08:27:48;9.10;99.90
44747;DHT22;30472;49.490;10.972;2023-03-31T08:30:17;9.10;99.90
44747;DHT22;30472;49.490;10.972;2023-03-31T08:32:43;9.10;99.90
44747;DHT22;30472;49.490;10.972;2023-03-31T08:35:09;9.10;99.90
44747;DHT22;30472;49.490;10.972;2023-03-31T08:37:35;9.10;99.90
44747;DHT22;30472;49.490;10.972;2023-03-31T08:40:03;9.20;99.90
44747;DHT22;30472;49.490;10.972;2023-03-31T08:42:40;9.30;99.90
44747;DHT22;30472;49.490;10.972;2023-03-31T08:45:17;9.40;99.90
44747;DHT22;30472;49.490;10.972;2023-03-31T08:47:46;9.60;99.90
44747;DHT22;30472;49.490;10.972;2023-03-31T08:50:16;9.70;99.90
44747;DHT22;30472;49.490;10.972;2023-03-31T08:53:05;9.80;99.90
44747;DHT22;30472;49.490;10.972;2023-03-31T08:55:42;9.90;99.90
44747;DHT22;30472;49.490;10.972;2023-03-31T08:58:39;10.00;99.90
44747;DHT22;30472;49.490;10.972;2023-03-31T09:01:40;10.10;99.90
44747;DHT22;30472;49.490;10.972;2023-03-31T09:04:46;10.40;99.90
44747;DHT22;30472;49.490;10.972;2023-03-31T09:13:06;10.70;99.90
44747;DHT22;30472;49.490;10.972;2023-03-31T09:15:49;10.70;99.90
44747;DHT22;30472;49.490;10.972;2023-03-31T09:21:05;10.80;99.90
44747;DHT22;30472;49.490;10.972;2023-03-31T09:24:02;10.80;99.90
44747;DHT22;30472;49.490;10.972;2023-03-31T09:26:34;10.70;99.90
44747;DHT22;30472;49.490;10.972;2023-03-31T09:29:06;10.80;99.90
44747;DHT22;30472;49.490;10.972;2023-03-31T09:31:34;10.90;99.90
44747;DHT22;30472;49.490;10.972;2023-03-31T09:34:16;11.10;99.90
44747;DHT22;30472;49.490;10.972;2023-03-31T09:36:43;11.00;99.90
44747;DHT22;30472;49.490;10.972;2023-03-31T09:39:13;11.10;99.90
44747;DHT22;30472;49.490;10.972;2023-03-31T09:41:46;11.30;99.90
44747;DHT22;30472;49.490;10.972;2023-03-31T09:44:25;11.50;99.90
44747;DHT22;30472;49.490;10.972;2023-03-31T09:46:52;11.50;99.90
44747;DHT22;30472;49.490;10.972;2023-03-31T09:49:21;11.90;99.90
44747;DHT22;30472;49.490;10.972;2023-03-31T09:51:51;12.10;99.90
44747;DHT22;30472;49.490;10.972;2023-03-31T09:54:30;12.20;99.90
44747;DHT22;30472;49.490;10.972;2023-03-31T09:56:58;13.30;99.90
44747;DHT22;30472;49.490;10.972;2023-03-31T09:59:34;14.30;99.90
44747;DHT22;30472;49.490;10.972;2023-03-31T10:04:45;14.90;99.90
44747;DHT22;30472;49.490;10.972;2023-03-31T10:07:11;14.90;99.90
44747;DHT22;30472;49.490;10.972;2023-03-31T10:09:38;14.70;99.90
44747;DHT22;30472;49.490;10.972;2023-03-31T10:12:06;14.00;99.90
44747;DHT22;30472;49.490;10.972;2023-03-31T10:14:39;14.50;99.90
44747;DHT22;30472;49.490;10.972;2023-03-31T10:17:06;14.20;99.90
44747;DHT22;30472;49.490;10.972;2023-03-31T10:19:35;14.10;99.90
44747;DHT22;30472;49.490;10.972;2023-03-31T10:22:04;13.80;99.90
44747;DHT22;30472;49.490;10.972;2023-03-31T10:24:44;13.80;99.90
44747;DHT22;30472;49.490;10.972;2023-03-31T10:27:30;14.00;99.90
44747;DHT22;30472;49.490;10.972;2023-03-31T10:30:01;14.00;99.90
44747;DHT22;30472;49.490;10.972;2023-03-31T10:32:32;13.80;99.90
44747;DHT22;30472;49.490;10.972;2023-03-31T10:35:23;14.10;99.90
44747;DHT22;30472;49.490;10.972;2023-03-31T10:37:54;14.10;99.90
44747;DHT22;30472;49.490;10.972;2023-03-31T10:40:26;14.30;99.90
44747;DHT22;30472;49.490;10.972;2023-03-31T10:45:43;14.90;99.90
44747;DHT22;30472;49.490;10.972;2023-03-31T10:48:34;15.50;99.90
44747;DHT22;30472;49.490;10.972;2023-03-31T10:51:19;15.80;99.90
44747;DHT22;30472;49.490;10.972;2023-03-31T10:53:49;15.00;99.90
44747;DHT22;30472;49.490;10.972;2023-03-31T10:59:06;15.80;99.90
44747;DHT22;30472;49.490;10.972;2023-03-31T11:01:51;16.30;99.90
44747;DHT22;30472;49.490;10.972;2023-03-31T11:13:55;14.80;99.90
44747;DHT22;30472;49.490;10.972;2023-03-31T11:16:31;15.40;99.90
44747;DHT22;30472;49.490;10.972;2023-03-31T11:21:56;16.20;99.90
44747;DHT22;30472;49.490;10.972;2023-03-31T11:30:35;15.80;99.90
44747;DHT22;30472;49.490;10.972;2023-03-31T11:36:02;15.50;99.90
44747;DHT22;30472;49.490;10.972;2023-03-31T11:41:35;14.80;99.90
44747;DHT22;30472;49.490;10.972;2023-03-31T11:44:05;14.80;99.90
44747;DHT22;30472;49.490;10.972;2023-03-31T11:47:00;15.70;99.90
44747;DHT22;30472;49.490;10.972;2023-03-31T11:49:31;15.80;99.90
44747;DHT22;30472;49.490;10.972;2023-03-31T11:52:27;15.70;99.90
44747;DHT22;30472;49.490;10.972;2023-03-31T11:57:36;14.70;99.90
44747;DHT22;30472;49.490;10.972;2023-03-31T12:00:25;14.60;99.90
44747;DHT22;30472;49.490;10.972;2023-03-31T12:05:50;14.00;99.90
44747;DHT22;30472;49.490;10.972;2023-03-31T12:08:25;14.00;99.90
44747;DHT22;30472;49.490;10.972;2023-03-31T12:10:58;13.50;99.90
44747;DHT22;30472;49.490;10.972;2023-03-31T12:13:50;13.00;99.90
44747;DHT22;30472;49.490;10.972;2023-03-31T12:16:26;12.30;99.90
44747;DHT22;30472;49.490;10.972;2023-03-31T12:19:16;12.40;99.90
44747;DHT22;30472;49.490;10.972;2023-03-31T12:21:48;12.60;99.90
44747;DHT22;30472;49.490;10.972;2023-03-31T12:24:15;12.90;99.90
44747;DHT22;30472;49.490;10.972;2023-03-31T12:26:59;13.30;99.90
44747;DHT22;30472;49.490;10.972;2023-03-31T12:29:29;13.30;99.90
44747;DHT22;30472;49.490;10.972;2023-03-31T12:31:58;13.20;99.90
44747;DHT22;30472;49.490;10.972;2023-03-31T12:34:26;13.30;99.90
44747;DHT22;30472;49.490;10.972;2023-03-31T12:37:04;13.10;99.90
44747;DHT22;30472;49.490;10.972;2023-03-31T12:39:54;13.10;99.90
44747;DHT22;30472;49.490;10.972;2023-03-31T12:45:25;12.90;99.90
44747;DHT22;30472;49.490;10.972;2023-03-31T12:53:54;13.30;99.90
44747;DHT22;30472;49.490;10.972;2023-03-31T12:56:21;13.30;99.90
44747;DHT22;30472;49.490;10.972;2023-03-31T12:58:47;13.30;99.90
44747;DHT22;30472;49.490;10.972;2023-03-31T13:01:20;13.20;99.90
44747;DHT22;30472;49.490;10.972;2023-03-31T13:09:00;11.30;99.90
44747;DHT22;30472;49.490;10.972;2023-03-31T13:16:46;9.80;99.90
44747;DHT22;30472;49.490;10.972;2023-03-31T13:19:34;9.70;99.90
44747;DHT22;30472;49.490;10.972;2023-03-31T13:22:02;9.70;99.90
44747;DHT22;30472;49.490;10.972;2023-03-31T13:24:29;9.60;99.90
44747;DHT22;30472;49.490;10.972;2023-03-31T13:26:57;9.90;99.90
44747;DHT22;30472;49.490;10.972;2023-03-31T13:29:40;10.10;99.90
44747;DHT22;30472;49.490;10.972;2023-03-31T13:32:16;10.90;99.90
44747;DHT22;30472;49.490;10.972;2023-03-31T13:34:48;11.70;99.90
44747;DHT22;30472;49.490;10.972;2023-03-31T13:37:56;12.10;99.90
44747;DHT22;30472;49.490;10.972;2023-03-31T13:48:28;12.60;99.90
44747;DHT22;30472;49.490;10.972;2023-03-31T13:51:17;12.60;99.90
44747;DHT22;30472;49.490;10.972;2023-03-31T13:54:13;12.90;99.90
44747;DHT22;30472;49.490;10.972;2023-03-31T13:56:51;12.60;99.90
44747;DHT22;30472;49.490;10.972;2023-03-31T13:59:31;13.00;99.90
44747;DHT22;30472;49.490;10.972;2023-03-31T14:04:50;12.50;99.90
44747;DHT22;30472;49.490;10.972;2023-03-31T14:07:26;12.60;99.90
44747;DHT22;30472;49.490;10.972;2023-03-31T14:09:53;12.70;99.90
44747;DHT22;30472;49.490;10.972;2023-03-31T14:12:35;12.80;99.90
44747;DHT22;30472;49.490;10.972;2023-03-31T14:15:04;12.90;99.90
44747;DHT22;30472;49.490;10.972;2023-03-31T14:17:38;13.10;99.90
44747;DHT22;30472;49.490;10.972;2023-03-31T14:20:11;13.20;99.90
44747;DHT22;30472;49.490;10.972;2023-03-31T14:22:47;13.40;99.90
44747;DHT22;30472;49.490;10.972;2023-03-31T14:28:26;13.60;99.90
44747;DHT22;30472;49.490;10.972;2023-03-31T14:39:23;13.20;99.90
44747;DHT22;30472;49.490;10.972;2023-03-31T14:41:55;13.10;99.90
44747;DHT22;30472;49.490;10.972;2023-03-31T14:44:24;13.30;99.90
44747;DHT22;30472;49.490;10.972;2023-03-31T14:46:50;13.30;99.90
44747;DHT22;30472;49.490;10.972;2023-03-31T14:49:24;13.40;99.90
44747;DHT22;30472;49.490;10.972;2023-03-31T14:51:52;13.30;99.90
44747;DHT22;30472;49.490;10.972;2023-03-31T14:54:19;13.60;99.90
44747;DHT22;30472;49.490;10.972;2023-03-31T14:56:56;13.80;99.90
44747;DHT22;30472;49.490;10.972;2023-03-31T14:59:26;13.40;99.90
44747;DHT22;30472;49.490;10.972;2023-03-31T15:01:53;13.30;99.90
44747;DHT22;30472;49.490;10.972;2023-03-31T15:04:23;13.40;99.90
44747;DHT22;30472;49.490;10.972;2023-03-31T15:06:50;13.50;99.90
44747;DHT22;30472;49.490;10.972;2023-03-31T15:09:28;13.60;99.90
44747;DHT22;30472;49.490;10.972;2023-03-31T15:12:12;13.80;99.90
44747;DHT22;30472;49.490;10.972;2023-03-31T15:14:48;13.70;99.90
44747;DHT22;30472;49.490;10.972;2023-03-31T15:17:39;13.50;99.90
44747;DHT22;30472;49.490;10.972;2023-03-31T15:20:25;13.70;99.90
44747;DHT22;30472;49.490;10.972;2023-03-31T15:22:56;13.40;99.90
44747;DHT22;30472;49.490;10.972;2023-03-31T15:25:30;13.30;99.90
44747;DHT22;30472;49.490;10.972;2023-03-31T15:28:00;13.30;99.90
44747;DHT22;30472;49.490;10.972;2023-03-31T15:30:28;13.20;99.90
44747;DHT22;30472;49.490;10.972;2023-03-31T15:32:54;13.30;99.90
44747;DHT22;30472;49.490;10.972;2023-03-31T15:35:21;13.60;99.90
44747;DHT22;30472;49.490;10.972;2023-03-31T15:37:51;13.50;99.90
44747;DHT22;30472;49.490;10.972;2023-03-31T15:40:21;13.30;99.90
44747;DHT22;30472;49.490;10.972;2023-03-31T15:42:47;13.40;99.90
44747;DHT22;30472;49.490;10.972;2023-03-31T15:48:21;13.60;99.90
44747;DHT22;30472;49.490;10.972;2023-03-31T15:50:48;13.70;99.90
44747;DHT22;30472;49.490;10.972;2023-03-31T15:53:44;13.90;99.90
44747;DHT22;30472;49.490;10.972;2023-03-31T15:59:00;13.50;99.90
44747;DHT22;30472;49.490;10.972;2023-03-31T16:01:41;13.50;99.90
44747;DHT22;30472;49.490;10.972;2023-03-31T16:04:12;13.20;99.90
44747;DHT22;30472;49.490;10.972;2023-03-31T16:06:45;13.10;99.90
44747;DHT22;30472;49.490;10.972;2023-03-31T16:09:36;13.00;99.90
44747;DHT22;30472;49.490;10.972;2023-03-31T16:12:08;12.90;99.90
44747;DHT22;30472;49.490;10.972;2023-03-31T16:14:38;12.80;99.90
44747;DHT22;30472;49.490;10.972;2023-03-31T16:17:12;12.70;99.90
44747;DHT22;30472;49.490;10.972;2023-03-31T16:19:58;12.70;99.90
44747;DHT22;30472;49.490;10.972;2023-03-31T16:22:30;12.70;99.90
44747;DHT22;30472;49.490;10.972;2023-03-31T16:24:58;12.60;99.90
44747;DHT22;30472;49.490;10.972;2023-03-31T16:27:24;12.60;99.90
44747;DHT22;30472;49.490;10.972;2023-03-31T16:29:49;12.50;99.90
44747;DHT22;30472;49.490;10.972;2023-03-31T16:32:17;12.50;99.90
44747;DHT22;30472;49.490;10.972;2023-03-31T16:34:58;12.40;99.90
44747;DHT22;30472;49.490;10.972;2023-03-31T16:37:24;12.30;99.90
44747;DHT22;30472;49.490;10.972;2023-03-31T16:39:50;12.30;99.90
44747;DHT22;30472;49.490;10.972;2023-03-31T16:42:16;12.30;99.90
44747;DHT22;30472;49.490;10.972;2023-03-31T16:44:42;12.30;99.90
44747;DHT22;30472;49.490;10.972;2023-03-31T16:47:08;12.30;99.90
44747;DHT22;30472;49.490;10.972;2023-03-31T16:49:34;12.20;99.90
44747;DHT22;30472;49.490;10.972;2023-03-31T16:51:59;12.10;99.90
44747;DHT22;30472;49.490;10.972;2023-03-31T16:54:26;12.00;99.90
44747;DHT22;30472;49.490;10.972;2023-03-31T16:56:51;11.80;99.90
44747;DHT22;30472;49.490;10.972;2023-03-31T16:59:17;11.60;99.90
44747;DHT22;30472;49.490;10.972;2023-03-31T17:01:42;11.50;99.90
44747;DHT22;30472;49.490;10.972;2023-03-31T17:04:08;11.50;99.90
44747;DHT22;30472;49.490;10.972;2023-03-31T17:06:33;11.40;99.90
44747;DHT22;30472;49.490;10.972;2023-03-31T17:08:59;11.30;99.90
44747;DHT22;30472;49.490;10.972;2023-03-31T17:11:26;11.20;99.90
44747;DHT22;30472;49.490;10.972;2023-03-31T17:13:51;11.00;99.90
44747;DHT22;30472;49.490;10.972;2023-03-31T17:16:18;10.90;99.90
44747;DHT22;30472;49.490;10.972;2023-03-31T17:18:44;10.80;99.90
44747;DHT22;30472;49.490;10.972;2023-03-31T17:21:12;10.80;99.90
44747;DHT22;30472;49.490;10.972;2023-03-31T17:23:39;10.80;99.90
44747;DHT22;30472;49.490;10.972;2023-03-31T17:26:05;10.70;99.90
44747;DHT22;30472;49.490;10.972;2023-03-31T17:28:31;10.80;99.90
44747;DHT22;30472;49.490;10.972;2023-03-31T17:30:57;10.70;99.90
44747;DHT22;30472;49.490;10.972;2023-03-31T17:33:25;10.70;99.90
44747;DHT22;30472;49.490;10.972;2023-03-31T17:35:56;10.70;99.90
44747;DHT22;30472;49.490;10.972;2023-03-31T17:38:23;10.70;99.90
44747;DHT22;30472;49.490;10.972;2023-03-31T17:40:50;10.70;99.90
44747;DHT22;30472;49.490;10.972;2023-03-31T17:43:15;10.70;99.90
44747;DHT22;30472;49.490;10.972;2023-03-31T17:45:41;10.60;99.90
44747;DHT22;30472;49.490;10.972;2023-03-31T17:48:07;10.60;99.90
44747;DHT22;30472;49.490;10.972;2023-03-31T17:50:34;10.60;99.90